Terminal Aerodrome Forecast
Issued by NWS Cleveland, OH

Home | Current Version | Previous Version | Text Only | Print | Product List | Glossary On
Versions: 1 2 3 4 5 6 7 8 9 10 11 12 13 14 15 16 17 18 19 20 21
000
FTUS41 KCLE 221100
TAFERI
TAF
KERI 221139Z 2212/2312 02012G20KT P6SM OVC012
     FM221600 02010KT P6SM OVC025
     FM221800 02010KT P6SM BKN035
     FM230100 36007KT P6SM BKN035=

USA.gov is the U.S. government's official web portal to all federal, state and local government web resources and services.